createdAt,value
2017-03-27T00:00:59.415Z,1023.9
2017-03-27T00:02:09.665Z,1023.9
2017-03-27T00:03:19.907Z,1023.91
2017-03-27T00:04:29.843Z,1023.92
2017-03-27T00:05:40.088Z,1023.93
2017-03-27T00:06:50.332Z,1023.93
2017-03-27T00:08:00.261Z,1023.93
2017-03-27T00:09:09.571Z,1023.93
2017-03-27T00:10:19.502Z,1023.89
2017-03-27T00:11:29.428Z,1023.93
2017-03-27T00:12:39.058Z,1023.93
2017-03-27T00:13:48.992Z,1023.94
2017-03-27T00:14:58.930Z,1023.87
2017-03-27T00:16:08.858Z,1023.84
2017-03-27T00:17:19.097Z,1023.86
2017-03-27T00:18:29.336Z,1023.83
2017-03-27T00:19:39.583Z,1023.78
2017-03-27T00:20:49.821Z,1023.77
2017-03-27T00:21:59.436Z,1023.71
2017-03-27T00:23:09.360Z,1023.71
2017-03-27T00:24:19.609Z,1023.69
2017-03-27T00:25:29.549Z,1023.63
2017-03-27T00:26:39.785Z,1023.67
2017-03-27T00:27:49.405Z,1023.63
2017-03-27T00:28:59.665Z,1023.64
2017-03-27T00:30:09.911Z,1023.61
2017-03-27T00:31:20.149Z,1023.6
2017-03-27T00:32:30.397Z,1023.6
2017-03-27T00:33:40.658Z,1023.57
2017-03-27T00:34:50.595Z,1023.56
2017-03-27T00:35:59.900Z,1023.55
2017-03-27T00:37:09.201Z,1023.56
2017-03-27T00:38:19.129Z,1023.61
2017-03-27T00:39:28.751Z,1023.62
2017-03-27T00:40:38.993Z,1023.67
2017-03-27T00:41:49.236Z,1023.68
2017-03-27T00:42:59.474Z,1023.67
2017-03-27T00:44:09.416Z,1023.7
2017-03-27T00:45:19.031Z,1023.71
2017-03-27T00:46:28.657Z,1023.69
2017-03-27T00:47:38.897Z,1023.72
2017-03-27T00:48:48.525Z,1023.73
2017-03-27T00:49:58.769Z,1023.72
2017-03-27T00:51:08.392Z,1023.72
2017-03-27T00:52:18.316Z,1023.7
2017-03-27T00:53:28.567Z,1023.68
2017-03-27T00:54:38.813Z,1023.69
2017-03-27T00:55:49.056Z,1023.7
2017-03-27T00:56:58.983Z,1023.66
2017-03-27T00:58:08.923Z,1023.69
2017-03-27T00:59:18.870Z,1023.72
2017-03-27T01:00:29.122Z,1023.67
2017-03-27T01:01:39.049Z,1023.65
2017-03-27T01:02:49.005Z,1023.68
2017-03-27T01:03:59.287Z,1023.68
2017-03-27T01:05:09.532Z,1023.69
2017-03-27T01:06:19.158Z,1023.64
2017-03-27T01:07:29.399Z,1023.65
2017-03-27T01:08:39.654Z,1023.64
2017-03-27T01:09:49.584Z,1023.66
2017-03-27T01:10:59.824Z,1023.66
2017-03-27T01:12:09.756Z,1023.67
2017-03-27T01:13:20.027Z,1023.72
2017-03-27T01:14:30.269Z,1023.71
2017-03-27T01:15:40.207Z,1023.74
2017-03-27T01:16:50.137Z,1023.72
2017-03-27T01:18:00.377Z,1023.7
2017-03-27T01:19:09.989Z,1023.72
2017-03-27T01:20:20.234Z,1023.68
2017-03-27T01:21:30.162Z,1023.72
2017-03-27T01:22:40.403Z,1023.71
2017-03-27T01:23:50.336Z,1023.69
2017-03-27T01:25:00.581Z,1023.76
2017-03-27T01:26:10.523Z,1023.78
2017-03-27T01:27:20.761Z,1023.77
2017-03-27T01:28:31.013Z,1023.8
2017-03-27T01:29:40.323Z,1023.81
2017-03-27T01:30:50.259Z,1023.79
2017-03-27T01:32:00.183Z,1023.78
2017-03-27T01:33:10.108Z,1023.79
2017-03-27T01:34:20.354Z,1023.82
2017-03-27T01:35:30.282Z,1023.82
2017-03-27T01:36:40.526Z,1023.79
2017-03-27T01:37:50.453Z,1023.82
2017-03-27T01:39:00.696Z,1023.74
2017-03-27T01:40:10.630Z,1023.8
2017-03-27T01:41:20.557Z,1023.8
2017-03-27T01:42:30.798Z,1023.81
2017-03-27T01:43:40.427Z,1023.79
2017-03-27T01:44:50.672Z,1023.8
2017-03-27T01:46:00.915Z,1023.79
2017-03-27T01:47:11.162Z,1023.77
2017-03-27T01:48:21.408Z,1023.78
2017-03-27T01:49:31.659Z,1023.75
2017-03-27T01:50:41.287Z,1023.81
2017-03-27T01:51:51.539Z,1023.77
2017-03-27T01:53:01.784Z,1023.73
2017-03-27T01:54:11.407Z,1023.72
2017-03-27T01:55:21.653Z,1023.69
2017-03-27T01:56:31.579Z,1023.67
2017-03-27T01:57:41.832Z,1023.67
2017-03-27T01:58:51.768Z,1023.63
2017-03-27T02:00:02.013Z,1023.65
2017-03-27T02:01:12.253Z,1023.62
2017-03-27T02:02:22.501Z,1023.67
2017-03-27T02:03:32.439Z,1023.69
2017-03-27T02:04:42.686Z,1023.71
2017-03-27T02:05:52.925Z,1023.67
2017-03-27T02:07:02.855Z,1023.68
2017-03-27T02:08:13.102Z,1023.65
2017-03-27T02:09:23.362Z,1023.66
2017-03-27T02:10:33.612Z,1023.67
2017-03-27T02:11:43.231Z,1023.61
2017-03-27T02:12:53.161Z,1023.63
2017-03-27T02:14:03.095Z,1023.6
2017-03-27T02:15:13.046Z,1023.61
2017-03-27T02:16:23.290Z,1023.61
2017-03-27T02:17:33.217Z,1023.62
2017-03-27T02:18:43.184Z,1023.62
2017-03-27T02:19:53.439Z,1023.6
2017-03-27T02:21:03.067Z,1023.63
2017-03-27T02:22:12.685Z,1023.64
2017-03-27T02:23:22.934Z,1023.63
2017-03-27T02:24:32.873Z,1023.6
2017-03-27T02:25:43.116Z,1023.6
2017-03-27T02:26:53.390Z,1023.59
2017-03-27T02:28:03.649Z,1023.59
2017-03-27T02:29:13.896Z,1023.63
2017-03-27T02:30:23.830Z,1023.62
2017-03-27T02:31:34.067Z,1023.58
2017-03-27T02:32:43.998Z,1023.59
2017-03-27T02:33:53.929Z,1023.58
2017-03-27T02:35:04.177Z,1023.56
2017-03-27T02:36:14.617Z,1023.57
2017-03-27T02:37:24.860Z,1023.59
2017-03-27T02:38:34.791Z,1023.57
2017-03-27T02:39:45.038Z,1023.56
2017-03-27T02:40:54.980Z,1023.58
2017-03-27T02:42:04.595Z,1023.59
2017-03-27T02:43:14.863Z,1023.54
2017-03-27T02:44:24.488Z,1023.53
2017-03-27T02:45:34.733Z,1023.57
2017-03-27T02:46:44.662Z,1023.58
2017-03-27T02:47:54.592Z,1023.58
2017-03-27T02:49:04.848Z,1023.55
2017-03-27T02:50:15.090Z,1023.53
2017-03-27T02:51:25.329Z,1023.55
2017-03-27T02:52:35.267Z,1023.54
2017-03-27T02:53:45.200Z,1023.56
2017-03-27T02:54:55.454Z,1023.59
2017-03-27T02:56:05.390Z,1023.6
2017-03-27T02:57:15.639Z,1023.58
2017-03-27T02:58:25.880Z,1023.53
2017-03-27T02:59:35.813Z,1023.5
2017-03-27T03:00:46.065Z,1023.51
2017-03-27T03:01:56.312Z,1023.48
2017-03-27T03:03:06.567Z,1023.45
2017-03-27T03:04:16.508Z,1023.47
2017-03-27T03:05:26.434Z,1023.51
2017-03-27T03:06:36.684Z,1023.53
2017-03-27T03:07:46.612Z,1023.51
2017-03-27T03:08:56.866Z,1023.49
2017-03-27T03:10:07.111Z,1023.48
2017-03-27T03:11:17.038Z,1023.47
2017-03-27T03:12:27.287Z,1023.46
2017-03-27T03:13:37.534Z,1023.48
2017-03-27T03:14:47.775Z,1023.5
2017-03-27T03:15:57.708Z,1023.5
2017-03-27T03:17:07.635Z,1023.49
2017-03-27T03:18:17.875Z,1023.48
2017-03-27T03:19:28.130Z,1023.47
2017-03-27T03:20:38.072Z,1023.48
2017-03-27T03:21:47.380Z,1023.47
2017-03-27T03:22:57.628Z,1023.42
2017-03-27T03:24:07.564Z,1023.42
2017-03-27T03:25:17.811Z,1023.38
2017-03-27T03:26:27.444Z,1023.4
2017-03-27T03:27:37.691Z,1023.42
2017-03-27T03:28:47.625Z,1023.46
2017-03-27T03:29:57.870Z,1023.42
2017-03-27T03:31:07.805Z,1023.42
2017-03-27T03:32:17.738Z,1023.41
2017-03-27T03:33:27.994Z,1023.46
2017-03-27T03:34:37.929Z,1023.42
2017-03-27T03:35:48.175Z,1023.38
2017-03-27T03:36:58.104Z,1023.39
2017-03-27T03:38:08.047Z,1023.39
2017-03-27T03:39:17.661Z,1023.38
2017-03-27T03:40:27.589Z,1023.4
2017-03-27T03:41:37.522Z,1023.41
2017-03-27T03:42:47.465Z,1023.41
2017-03-27T03:43:57.720Z,1023.38
2017-03-27T03:45:07.969Z,1023.35
2017-03-27T03:46:18.216Z,1023.35
2017-03-27T03:47:28.456Z,1023.33
2017-03-27T03:48:38.079Z,1023.34
2017-03-27T03:49:48.017Z,1023.33
2017-03-27T03:50:57.320Z,1023.36
2017-03-27T03:52:07.262Z,1023.35
2017-03-27T03:53:17.196Z,1023.4
2017-03-27T03:54:27.452Z,1023.43
2017-03-27T03:55:37.703Z,1023.44
2017-03-27T03:56:47.635Z,1023.41
2017-03-27T03:57:57.887Z,1023.44
2017-03-27T03:59:07.514Z,1023.45
2017-03-27T04:00:17.449Z,1023.45
2017-03-27T04:01:27.690Z,1023.47
2017-03-27T04:02:37.938Z,1023.41
2017-03-27T04:03:47.871Z,1023.43
2017-03-27T04:04:57.813Z,1023.45
2017-03-27T04:06:08.056Z,1023.44
2017-03-27T04:07:17.994Z,1023.45
2017-03-27T04:08:28.230Z,1023.45
2017-03-27T04:09:37.855Z,1023.44
2017-03-27T04:10:47.483Z,1023.49
2017-03-27T04:11:57.725Z,1023.47
2017-03-27T04:13:07.971Z,1023.47
2017-03-27T04:14:18.224Z,1023.5
2017-03-27T04:15:27.847Z,1023.49
2017-03-27T04:16:38.089Z,1023.47
2017-03-27T04:17:47.393Z,1023.49
2017-03-27T04:18:57.331Z,1023.52
2017-03-27T04:20:07.264Z,1023.54
2017-03-27T04:21:17.192Z,1023.53
2017-03-27T04:22:27.124Z,1023.53
2017-03-27T04:23:37.374Z,1023.57
2017-03-27T04:24:47.308Z,1023.59
2017-03-27T04:25:57.255Z,1023.58
2017-03-27T04:27:07.186Z,1023.58
2017-03-27T04:28:17.122Z,1023.59
2017-03-27T04:29:27.384Z,1023.62
2017-03-27T04:30:37.330Z,1023.63
2017-03-27T04:31:47.256Z,1023.66
2017-03-27T04:32:57.502Z,1023.66
2017-03-27T04:34:07.429Z,1023.71
2017-03-27T04:35:17.051Z,1023.71
2017-03-27T04:36:27.303Z,1023.69
2017-03-27T04:37:37.549Z,1023.69
2017-03-27T04:38:47.803Z,1023.72
2017-03-27T04:39:57.427Z,1023.68
2017-03-27T04:41:07.364Z,1023.74
2017-03-27T04:42:17.605Z,1023.7
2017-03-27T04:43:27.539Z,1023.69
2017-03-27T04:44:37.163Z,1023.7
2017-03-27T04:45:47.403Z,1023.72
2017-03-27T04:46:57.644Z,1023.69
2017-03-27T04:48:07.894Z,1023.66
2017-03-27T04:49:17.513Z,1023.65
2017-03-27T04:50:27.449Z,1023.7
2017-03-27T04:51:37.705Z,1023.74
2017-03-27T04:52:47.637Z,1023.69
2017-03-27T04:53:57.580Z,1023.68
2017-03-27T04:55:07.829Z,1023.66
2017-03-27T04:56:17.757Z,1023.68
2017-03-27T04:57:28.002Z,1023.67
2017-03-27T04:58:38.309Z,1023.65
2017-03-27T04:59:48.572Z,1023.63
2017-03-27T05:00:58.502Z,1023.57
2017-03-27T05:02:08.744Z,1023.56
2017-03-27T05:03:18.366Z,1023.52
2017-03-27T05:04:27.995Z,1023.49
2017-03-27T05:05:37.938Z,1023.55
2017-03-27T05:06:48.181Z,1023.51
2017-03-27T05:07:58.110Z,1023.5
2017-03-27T05:09:08.047Z,1023.47
2017-03-27T05:10:17.990Z,1023.5
2017-03-27T05:11:27.605Z,1023.49
2017-03-27T05:12:37.845Z,1023.53
2017-03-27T05:13:47.779Z,1023.59
2017-03-27T05:14:58.029Z,1023.58
2017-03-27T05:16:07.646Z,1023.56
2017-03-27T05:17:17.784Z,1023.58
2017-03-27T05:18:28.028Z,1023.57
2017-03-27T05:19:37.956Z,1023.59
2017-03-27T05:20:48.193Z,1023.59
2017-03-27T05:21:58.432Z,1023.58
2017-03-27T05:23:08.361Z,1023.58
2017-03-27T05:24:18.300Z,1023.6
2017-03-27T05:25:28.551Z,1023.59
2017-03-27T05:26:38.477Z,1023.59
2017-03-27T05:27:48.719Z,1023.53
2017-03-27T05:28:58.963Z,1023.53
2017-03-27T05:30:09.211Z,1023.52
2017-03-27T05:31:19.142Z,1023.49
2017-03-27T05:32:29.083Z,1023.49
2017-03-27T05:33:39.329Z,1023.46
2017-03-27T05:34:49.577Z,1023.48
2017-03-27T05:35:59.819Z,1023.46
2017-03-27T05:37:10.087Z,1023.45
2017-03-27T05:38:20.338Z,1023.47
2017-03-27T05:39:29.958Z,1023.49
2017-03-27T05:40:40.200Z,1023.51
2017-03-27T05:41:50.130Z,1023.52
2017-03-27T05:43:00.370Z,1023.52
2017-03-27T05:44:10.297Z,1023.51
2017-03-27T05:45:20.587Z,1023.52
2017-03-27T05:46:30.830Z,1023.57
2017-03-27T05:47:41.082Z,1023.54
2017-03-27T05:48:51.028Z,1023.55
2017-03-27T05:50:00.973Z,1023.58
2017-03-27T05:51:10.588Z,1023.58
2017-03-27T05:52:20.516Z,1023.56
2017-03-27T05:53:30.442Z,1023.55
2017-03-27T05:54:40.382Z,1023.54
2017-03-27T05:55:50.627Z,1023.51
2017-03-27T05:57:00.868Z,1023.45
2017-03-27T05:58:10.830Z,1023.49
2017-03-27T05:59:21.070Z,1023.5
2017-03-27T06:00:31.315Z,1023.52
2017-03-27T06:01:41.258Z,1023.53
2017-03-27T06:02:51.193Z,1023.55
2017-03-27T06:04:01.125Z,1023.52
2017-03-27T06:05:11.060Z,1023.55
2017-03-27T06:06:20.678Z,1023.52
2017-03-27T06:07:30.602Z,1023.56
2017-03-27T06:08:40.862Z,1023.59
2017-03-27T06:09:51.111Z,1023.54
2017-03-27T06:11:01.369Z,1023.54
2017-03-27T06:12:11.297Z,1023.56
2017-03-27T06:13:20.906Z,1023.59
2017-03-27T06:14:31.154Z,1023.61
2017-03-27T06:15:41.088Z,1023.64
2017-03-27T06:16:51.024Z,1023.57
2017-03-27T06:18:01.280Z,1023.53
2017-03-27T06:19:11.522Z,1023.48
2017-03-27T06:20:21.774Z,1023.41
2017-03-27T06:21:31.703Z,1023.42
2017-03-27T06:22:41.325Z,1023.41
2017-03-27T06:23:50.945Z,1023.41
2017-03-27T06:25:00.561Z,1023.44
2017-03-27T06:26:10.503Z,1023.44
2017-03-27T06:27:20.466Z,1023.46
2017-03-27T06:28:30.082Z,1023.4
2017-03-27T06:29:40.019Z,1023.39
2017-03-27T06:30:49.948Z,1023.38
2017-03-27T06:32:00.196Z,1023.39
2017-03-27T06:33:10.448Z,1023.41
2017-03-27T06:34:20.699Z,1023.42
2017-03-27T06:35:30.633Z,1023.41
2017-03-27T06:36:40.883Z,1023.47
2017-03-27T06:37:51.164Z,1023.44
2017-03-27T06:39:00.786Z,1023.45
2017-03-27T06:40:10.411Z,1023.44
2017-03-27T06:41:20.338Z,1023.46
2017-03-27T06:42:30.266Z,1023.47
2017-03-27T06:43:40.213Z,1023.45
2017-03-27T06:44:49.839Z,1023.48
2017-03-27T06:45:59.779Z,1023.49
2017-03-27T06:47:10.021Z,1023.49
2017-03-27T06:48:20.266Z,1023.49
2017-03-27T06:49:30.508Z,1023.48
2017-03-27T06:50:40.752Z,1023.49
2017-03-27T06:51:50.684Z,1023.48
2017-03-27T06:53:00.611Z,1023.5
2017-03-27T06:54:10.857Z,1023.5
2017-03-27T06:55:21.162Z,1023.51
2017-03-27T06:56:30.785Z,1023.5
2017-03-27T06:57:40.720Z,1023.52
2017-03-27T06:58:50.965Z,1023.52
2017-03-27T07:00:01.205Z,1023.54
2017-03-27T07:01:11.131Z,1023.54
2017-03-27T07:02:20.748Z,1023.5
2017-03-27T07:03:29.448Z,1023.53
2017-03-27T07:04:39.383Z,1023.53
2017-03-27T07:05:49.624Z,1023.51
2017-03-27T07:06:59.557Z,1023.55
2017-03-27T07:08:09.506Z,1023.53
2017-03-27T07:09:19.445Z,1023.52
2017-03-27T07:10:29.694Z,1023.52
2017-03-27T07:11:39.309Z,1023.5
2017-03-27T07:12:49.243Z,1023.55
2017-03-27T07:13:59.499Z,1023.51
2017-03-27T07:15:09.130Z,1023.49
2017-03-27T07:16:18.750Z,1023.5
2017-03-27T07:17:28.686Z,1023.48
2017-03-27T07:18:38.306Z,1023.47
2017-03-27T07:19:47.927Z,1023.46
2017-03-27T07:20:58.177Z,1023.45
2017-03-27T07:22:08.415Z,1023.45
2017-03-27T07:23:18.667Z,1023.46
2017-03-27T07:24:28.601Z,1023.46
2017-03-27T07:25:38.536Z,1023.46
2017-03-27T07:26:48.471Z,1023.46
2017-03-27T07:27:58.400Z,1023.46
2017-03-27T07:29:08.043Z,1023.47
2017-03-27T07:30:18.299Z,1023.48
2017-03-27T07:31:28.232Z,1023.48
2017-03-27T07:32:38.166Z,1023.5
2017-03-27T07:33:48.416Z,1023.53
2017-03-27T07:34:58.669Z,1023.57
2017-03-27T07:36:08.598Z,1023.59
2017-03-27T07:37:18.525Z,1023.59
2017-03-27T07:38:28.461Z,1023.62
2017-03-27T07:39:38.713Z,1023.63
2017-03-27T07:40:48.986Z,1023.59
2017-03-27T07:41:58.918Z,1023.58
2017-03-27T07:43:09.166Z,1023.59
2017-03-27T07:44:19.416Z,1023.62
2017-03-27T07:45:28.727Z,1023.63
2017-03-27T07:46:39.174Z,1023.61
2017-03-27T07:47:48.800Z,1023.56
2017-03-27T07:48:58.749Z,1023.55
2017-03-27T07:50:08.683Z,1023.5
2017-03-27T07:51:18.675Z,1023.49
2017-03-27T07:52:28.602Z,1023.47
2017-03-27T07:53:38.536Z,1023.49
2017-03-27T07:54:48.794Z,1023.49
2017-03-27T07:55:59.053Z,1023.51
2017-03-27T07:57:08.981Z,1023.51
2017-03-27T07:58:18.906Z,1023.52
2017-03-27T07:59:29.153Z,1023.56
2017-03-27T08:00:39.391Z,1023.54
2017-03-27T08:01:49.326Z,1023.52
2017-03-27T08:02:59.574Z,1023.56
2017-03-27T08:04:09.842Z,1023.62
2017-03-27T08:05:19.462Z,1023.61
2017-03-27T08:06:29.385Z,1023.62
2017-03-27T08:07:39.315Z,1023.65
2017-03-27T08:08:49.247Z,1023.64
2017-03-27T08:09:59.501Z,1023.65
2017-03-27T08:11:09.747Z,1023.61
2017-03-27T08:12:20.012Z,1023.62
2017-03-27T08:13:29.944Z,1023.64
2017-03-27T08:14:40.190Z,1023.61
2017-03-27T08:15:50.129Z,1023.59
2017-03-27T08:17:00.068Z,1023.56
2017-03-27T08:18:09.692Z,1023.6
2017-03-27T08:19:19.948Z,1023.54
2017-03-27T08:20:30.114Z,1023.58
2017-03-27T08:21:40.046Z,1023.58
2017-03-27T08:22:50.324Z,1023.61
2017-03-27T08:24:00.566Z,1023.67
2017-03-27T08:25:10.810Z,1023.6
2017-03-27T08:26:21.058Z,1023.61
2017-03-27T08:27:31.300Z,1023.61
2017-03-27T08:28:41.240Z,1023.57
2017-03-27T08:29:51.173Z,1023.57
2017-03-27T08:31:01.475Z,1023.53
2017-03-27T08:32:11.406Z,1023.55
2017-03-27T08:33:21.336Z,1023.53
2017-03-27T08:34:31.271Z,1023.51
2017-03-27T08:35:41.214Z,1023.47
2017-03-27T08:36:51.472Z,1023.49
2017-03-27T08:38:01.436Z,1023.51
2017-03-27T08:39:11.686Z,1023.5
2017-03-27T08:40:21.941Z,1023.55
2017-03-27T08:41:32.185Z,1023.53
2017-03-27T08:42:42.421Z,1023.54
2017-03-27T08:43:52.357Z,1023.53
2017-03-27T08:45:02.298Z,1023.51
2017-03-27T08:46:12.226Z,1023.52
2017-03-27T08:47:22.460Z,1023.49
2017-03-27T08:48:31.767Z,1023.49
2017-03-27T08:49:41.692Z,1023.5
2017-03-27T08:50:51.961Z,1023.55
2017-03-27T08:52:00.946Z,1023.58
2017-03-27T08:53:10.561Z,1023.65
2017-03-27T08:54:20.798Z,1023.62
2017-03-27T08:55:31.064Z,1023.61
2017-03-27T08:56:40.681Z,1023.62
2017-03-27T08:57:50.607Z,1023.64
2017-03-27T08:59:00.852Z,1023.64
2017-03-27T09:00:11.108Z,1023.62
2017-03-27T09:01:21.362Z,1023.66
2017-03-27T09:02:31.603Z,1023.67
2017-03-27T09:03:41.532Z,1023.67
2017-03-27T09:04:51.478Z,1023.59
2017-03-27T09:06:01.419Z,1023.59
2017-03-27T09:07:10.725Z,1023.59
2017-03-27T09:08:20.646Z,1023.56
2017-03-27T09:09:30.579Z,1023.57
2017-03-27T09:10:40.511Z,1023.61
2017-03-27T09:11:50.437Z,1023.63
2017-03-27T09:13:00.680Z,1023.68
2017-03-27T09:14:10.927Z,1023.63
2017-03-27T09:15:20.548Z,1023.63
2017-03-27T09:16:29.850Z,1023.61
2017-03-27T09:17:39.474Z,1023.62
2017-03-27T09:18:49.412Z,1023.66
2017-03-27T09:19:59.666Z,1023.64
2017-03-27T09:21:09.598Z,1023.65
2017-03-27T09:22:19.837Z,1023.66
2017-03-27T09:23:30.105Z,1023.68
2017-03-27T09:24:40.033Z,1023.65
2017-03-27T09:25:49.659Z,1023.63
2017-03-27T09:26:59.270Z,1023.65
2017-03-27T09:28:08.575Z,1023.64
2017-03-27T09:29:18.507Z,1023.64
2017-03-27T09:30:28.751Z,1023.6
2017-03-27T09:31:38.991Z,1023.57
2017-03-27T09:32:48.309Z,1023.63
2017-03-27T09:33:57.929Z,1023.64
2017-03-27T09:35:07.547Z,1023.62
2017-03-27T09:36:17.474Z,1023.63
2017-03-27T09:37:27.408Z,1023.66
2017-03-27T09:38:37.340Z,1023.59
2017-03-27T09:39:47.277Z,1023.62
2017-03-27T09:40:57.206Z,1023.64
2017-03-27T09:42:07.141Z,1023.65
2017-03-27T09:43:17.384Z,1023.67
2017-03-27T09:44:27.630Z,1023.67
2017-03-27T09:45:37.881Z,1023.66
2017-03-27T09:46:47.501Z,1023.6
2017-03-27T09:47:57.435Z,1023.62
2017-03-27T09:49:07.365Z,1023.59
2017-03-27T09:50:17.289Z,1023.66
2017-03-27T09:51:27.216Z,1023.62
2017-03-27T09:52:37.455Z,1023.57
2017-03-27T09:53:47.706Z,1023.54
2017-03-27T09:54:57.948Z,1023.54
2017-03-27T09:56:07.877Z,1023.5
2017-03-27T09:57:18.127Z,1023.59
2017-03-27T09:58:28.383Z,1023.55
2017-03-27T09:59:38.631Z,1023.59
2017-03-27T10:00:48.556Z,1023.57
2017-03-27T10:01:58.167Z,1023.56
2017-03-27T10:03:08.415Z,1023.62
2017-03-27T10:04:17.815Z,1023.57
2017-03-27T10:05:28.072Z,1023.61
2017-03-27T10:06:38.315Z,1023.59
2017-03-27T10:07:48.557Z,1023.6
2017-03-27T10:08:58.824Z,1023.59
2017-03-27T10:10:08.763Z,1023.57
2017-03-27T10:11:18.685Z,1023.6
2017-03-27T10:12:28.610Z,1023.55
2017-03-27T10:13:38.874Z,1023.54
2017-03-27T10:14:48.811Z,1023.59
2017-03-27T10:15:58.782Z,1023.61
2017-03-27T10:17:09.027Z,1023.57
2017-03-27T10:18:18.955Z,1023.57
2017-03-27T10:19:28.891Z,1023.57
2017-03-27T10:20:39.135Z,1023.62
2017-03-27T10:21:49.378Z,1023.58
2017-03-27T10:22:58.997Z,1023.57
2017-03-27T10:24:08.934Z,1023.56
2017-03-27T10:25:19.191Z,1023.58
2017-03-27T10:26:29.438Z,1023.54
2017-03-27T10:27:39.683Z,1023.54
2017-03-27T10:28:49.618Z,1023.55
2017-03-27T10:29:59.865Z,1023.5
2017-03-27T10:31:10.111Z,1023.46
2017-03-27T10:32:19.737Z,1023.48
2017-03-27T10:33:29.981Z,1023.48
2017-03-27T10:34:39.921Z,1023.47
2017-03-27T10:35:49.536Z,1023.45
2017-03-27T10:36:59.154Z,1023.44
2017-03-27T10:38:09.398Z,1023.4
2017-03-27T10:39:19.326Z,1023.37
2017-03-27T10:40:29.257Z,1023.4
2017-03-27T10:41:39.185Z,1023.42
2017-03-27T10:42:48.805Z,1023.35
2017-03-27T10:43:58.429Z,1023.39
2017-03-27T10:45:08.361Z,1023.36
2017-03-27T10:46:18.286Z,1023.38
2017-03-27T10:47:28.212Z,1023.33
2017-03-27T10:48:38.159Z,1023.38
2017-03-27T10:49:48.450Z,1023.36
2017-03-27T10:50:58.697Z,1023.35
2017-03-27T10:52:08.647Z,1023.35
2017-03-27T10:53:18.900Z,1023.35
2017-03-27T10:54:28.845Z,1023.35
2017-03-27T10:55:39.090Z,1023.32
2017-03-27T10:56:48.705Z,1023.35
2017-03-27T10:57:58.953Z,1023.27
2017-03-27T10:59:08.568Z,1023.3
2017-03-27T11:00:18.820Z,1023.35
2017-03-27T11:01:29.062Z,1023.3
2017-03-27T11:02:39.299Z,1023.34
2017-03-27T11:03:49.558Z,1023.34
2017-03-27T11:04:59.800Z,1023.3
2017-03-27T11:06:09.410Z,1023.27
2017-03-27T11:07:19.648Z,1023.23
2017-03-27T11:08:29.280Z,1023.23
2017-03-27T11:09:39.529Z,1023.21
2017-03-27T11:10:49.780Z,1023.19
2017-03-27T11:11:59.400Z,1023.17
2017-03-27T11:13:09.329Z,1023.2
2017-03-27T11:14:18.948Z,1023.19
2017-03-27T11:15:28.879Z,1023.17
2017-03-27T11:16:39.127Z,1023.15
2017-03-27T11:17:48.740Z,1023.15
2017-03-27T11:18:59.208Z,1023.12
2017-03-27T11:20:09.456Z,1023.13
2017-03-27T11:21:19.704Z,1023.11
2017-03-27T11:22:29.630Z,1023.09
2017-03-27T11:23:38.928Z,1023.12
2017-03-27T11:24:48.548Z,1023.11
2017-03-27T11:25:58.803Z,1023.07
2017-03-27T11:27:09.047Z,1023.05
2017-03-27T11:28:19.292Z,1023.01
2017-03-27T11:29:29.548Z,1023.03
2017-03-27T11:30:39.482Z,1022.97
2017-03-27T11:31:49.411Z,1022.94
2017-03-27T11:32:59.338Z,1022.93
2017-03-27T11:34:09.588Z,1022.94
2017-03-27T11:35:19.525Z,1022.89
2017-03-27T11:36:29.768Z,1022.9
2017-03-27T11:37:39.378Z,1022.84
2017-03-27T11:38:49.622Z,1022.83
2017-03-27T11:39:59.575Z,1022.79
2017-03-27T11:41:08.881Z,1022.83
2017-03-27T11:42:18.504Z,1022.83
2017-03-27T11:43:28.437Z,1022.9
2017-03-27T11:44:38.381Z,1022.85
2017-03-27T11:45:48.309Z,1022.82
2017-03-27T11:46:58.560Z,1022.79
2017-03-27T11:48:08.488Z,1022.79
2017-03-27T11:49:18.109Z,1022.81
2017-03-27T11:50:27.739Z,1022.79
2017-03-27T11:51:37.373Z,1022.74
2017-03-27T11:52:47.311Z,1022.68
2017-03-27T11:53:57.273Z,1022.75
2017-03-27T11:55:06.914Z,1022.69
2017-03-27T11:56:16.587Z,1022.69
2017-03-27T11:57:26.526Z,1022.68
2017-03-27T11:58:36.172Z,1022.65
2017-03-27T11:59:45.515Z,1022.62
2017-03-27T12:00:55.155Z,1022.58
2017-03-27T12:02:04.804Z,1022.57
2017-03-27T12:03:14.105Z,1022.53
2017-03-27T12:04:24.365Z,1022.5
2017-03-27T12:05:33.707Z,1022.51
2017-03-27T12:06:43.980Z,1022.52
2017-03-27T12:07:54.223Z,1022.49
2017-03-27T12:09:03.850Z,1022.47
2017-03-27T12:10:13.815Z,1022.41
2017-03-27T12:11:23.748Z,1022.38
2017-03-27T12:12:33.366Z,1022.37
2017-03-27T12:13:43.626Z,1022.45
2017-03-27T12:14:53.558Z,1022.41
2017-03-27T12:16:03.179Z,1022.37
2017-03-27T12:17:13.111Z,1022.35
2017-03-27T12:18:23.039Z,1022.31
2017-03-27T12:19:33.284Z,1022.25
2017-03-27T12:20:42.922Z,1022.23
2017-03-27T12:21:52.547Z,1022.28
2017-03-27T12:23:01.886Z,1022.23
2017-03-27T12:24:11.859Z,1022.24
2017-03-27T12:25:22.133Z,1022.25
2017-03-27T12:26:32.056Z,1022.24
2017-03-27T12:27:42.005Z,1022.21
2017-03-27T12:28:52.246Z,1022.25
2017-03-27T12:30:02.173Z,1022.14
2017-03-27T12:31:11.183Z,1022.1
2017-03-27T12:32:20.835Z,1022.1
2017-03-27T12:33:30.452Z,1022.12
2017-03-27T12:34:40.095Z,1022.14
2017-03-27T12:35:49.398Z,1022.16
2017-03-27T12:36:59.022Z,1022.12
2017-03-27T12:38:08.678Z,1022.14
2017-03-27T12:39:18.952Z,1022.14
2017-03-27T12:40:28.261Z,1022.09
2017-03-27T12:41:37.246Z,1022.07
2017-03-27T12:42:47.198Z,1022.09
2017-03-27T12:43:57.152Z,1022.02
2017-03-27T12:45:07.137Z,1021.99
2017-03-27T12:46:17.396Z,1021.95
2017-03-27T12:47:27.008Z,1021.96
2017-03-27T12:48:36.641Z,1021.92
2017-03-27T12:49:46.599Z,1021.86
2017-03-27T12:50:56.524Z,1021.83
2017-03-27T12:52:06.768Z,1021.85
2017-03-27T12:53:15.752Z,1021.81
2017-03-27T12:54:25.993Z,1021.82
2017-03-27T12:55:35.927Z,1021.87
2017-03-27T12:56:45.544Z,1021.83
2017-03-27T12:57:54.897Z,1021.78
2017-03-27T12:59:03.894Z,1021.75
2017-03-27T13:00:13.545Z,1021.8
2017-03-27T13:01:23.549Z,1021.75
2017-03-27T13:02:33.541Z,1021.74
2017-03-27T13:03:43.797Z,1021.74
2017-03-27T13:04:53.745Z,1021.71
2017-03-27T13:06:03.696Z,1021.69
2017-03-27T13:07:13.328Z,1021.72
2017-03-27T13:08:22.942Z,1021.69
2017-03-27T13:09:32.865Z,1021.7
2017-03-27T13:10:42.474Z,1021.74
2017-03-27T13:11:52.096Z,1021.71
2017-03-27T13:13:02.022Z,1021.7
2017-03-27T13:14:11.953Z,1021.67
2017-03-27T13:15:22.218Z,1021.67
2017-03-27T13:16:32.147Z,1021.62
2017-03-27T13:17:42.400Z,1021.62
2017-03-27T13:18:51.695Z,1021.64
2017-03-27T13:20:01.621Z,1021.61
2017-03-27T13:21:10.618Z,1021.6
2017-03-27T13:22:20.887Z,1021.58
2017-03-27T13:23:30.496Z,1021.55
2017-03-27T13:24:39.486Z,1021.55
2017-03-27T13:25:49.416Z,1021.55
2017-03-27T13:26:59.339Z,1021.54
2017-03-27T13:28:09.576Z,1021.56
2017-03-27T13:29:19.816Z,1021.58
2017-03-27T13:30:29.750Z,1021.6
2017-03-27T13:31:39.675Z,1021.58
2017-03-27T13:32:49.598Z,1021.62
2017-03-27T13:33:59.235Z,1021.56
2017-03-27T13:35:09.175Z,1021.54
2017-03-27T13:36:19.102Z,1021.54
2017-03-27T13:37:29.342Z,1021.52
2017-03-27T13:38:38.636Z,1021.52
2017-03-27T13:39:48.249Z,1021.5
2017-03-27T13:40:58.179Z,1021.47
2017-03-27T13:42:08.436Z,1021.45
2017-03-27T13:43:18.688Z,1021.41
2017-03-27T13:44:28.932Z,1021.36
2017-03-27T13:45:39.168Z,1021.41
2017-03-27T13:46:48.783Z,1021.39
2017-03-27T13:47:59.030Z,1021.34
2017-03-27T13:49:08.647Z,1021.33
2017-03-27T13:50:18.892Z,1021.29
2017-03-27T13:51:29.122Z,1021.29
2017-03-27T13:52:39.362Z,1021.28
2017-03-27T13:53:49.277Z,1021.31
2017-03-27T13:54:59.205Z,1021.35
2017-03-27T13:56:09.446Z,1021.3
2017-03-27T13:57:19.693Z,1021.26
2017-03-27T13:58:29.622Z,1021.31
2017-03-27T13:59:39.890Z,1021.26
2017-03-27T14:00:50.119Z,1021.22
2017-03-27T14:02:00.039Z,1021.2
2017-03-27T14:03:10.274Z,1021.17
2017-03-27T14:04:20.200Z,1021.12
2017-03-27T14:05:30.439Z,1021.08
2017-03-27T14:06:40.673Z,1021.11
2017-03-27T14:07:50.607Z,1021.11
2017-03-27T14:09:00.538Z,1021.06